Time;durP1;ratioP1;P1;durP2;ratioP2;P2;SDS_P1;SDS_P2;PMS_P1;PMS_P2;Temp;Humidity;BMP_temperature;BMP_pressure;BME280_temperature;BME280_humidity;BME280_pressure;Samples;Min_cycle;Max_cycle;Signal;HPM_P1;HPM_P2
2023/08/05 00:00:55;;;;;;;;;;;19.10;86.80;;;;;;5041280;28;19929;-77
2023/08/05 00:03:21;;;;;;;;;;;19.10;86.90;;;;;;5044270;28;19940;-78
2023/08/05 00:05:48;;;;;;;;;;;19.00;86.90;;;;;;5043740;28;19928;-76
2023/08/05 00:08:15;;;;;;;;;;;19.00;87.00;;;;;;5037255;28;20015;-79
2023/08/05 00:10:42;;;;;;;;;;;19.00;87.00;;;;;;5039622;28;19933;-79
2023/08/05 00:13:10;;;;;;;;;;;19.00;87.20;;;;;;5036564;28;19928;-77
2023/08/05 00:15:37;;;;;;;;;;;19.00;87.20;;;;;;5038451;28;19928;-80
2023/08/05 00:18:03;;;;;;;;;;;18.90;87.10;;;;;;5042099;28;19932;-75
2023/08/05 00:20:30;;;;;;;;;;;18.90;87.20;;;;;;5040210;28;19951;-79
2023/08/05 00:22:56;;;;;;;;;;;18.90;87.20;;;;;;5039216;28;19928;-77
2023/08/05 00:25:23;;;;;;;;;;;18.90;87.30;;;;;;5032596;28;19929;-79
2023/08/05 00:27:50;;;;;;;;;;;18.90;87.40;;;;;;5044978;28;19940;-78
2023/08/05 00:30:18;;;;;;;;;;;18.90;87.40;;;;;;5050164;28;19929;-79
2023/08/05 00:32:44;;;;;;;;;;;18.90;87.40;;;;;;5046152;28;19971;-79
2023/08/05 00:35:11;;;;;;;;;;;18.90;87.60;;;;;;5047184;28;19928;-75
2023/08/05 00:37:37;;;;;;;;;;;18.80;87.50;;;;;;5047653;28;19924;-77
2023/08/05 00:40:05;;;;;;;;;;;18.80;87.60;;;;;;5047488;28;19929;-77
2023/08/05 00:42:32;;;;;;;;;;;18.80;87.60;;;;;;5043981;28;19933;-83
2023/08/05 00:44:58;;;;;;;;;;;18.80;87.70;;;;;;5040098;28;20635;-78
2023/08/05 00:47:26;;;;;;;;;;;18.80;87.70;;;;;;5044250;28;19928;-76
2023/08/05 00:49:55;;;;;;;;;;;18.80;87.80;;;;;;5040663;28;19939;-76
2023/08/05 00:52:23;;;;;;;;;;;18.80;87.80;;;;;;5043475;28;19928;-78
2023/08/05 00:54:50;;;;;;;;;;;18.80;87.90;;;;;;5041846;28;20657;-76
2023/08/05 00:57:18;;;;;;;;;;;18.70;87.90;;;;;;5039769;28;19928;-81
2023/08/05 00:59:45;;;;;;;;;;;18.70;87.90;;;;;;5045616;28;20512;-78
2023/08/05 01:02:11;;;;;;;;;;;18.70;87.90;;;;;;5038528;28;19993;-82
2023/08/05 01:04:39;;;;;;;;;;;18.70;88.00;;;;;;5041020;28;19940;-75
2023/08/05 01:07:06;;;;;;;;;;;18.70;88.10;;;;;;5041248;28;19936;-75
2023/08/05 01:09:33;;;;;;;;;;;18.70;88.10;;;;;;5041890;28;19971;-77
2023/08/05 01:12:00;;;;;;;;;;;18.70;88.20;;;;;;5042979;28;19935;-78
2023/08/05 01:14:26;;;;;;;;;;;18.70;88.30;;;;;;5042800;28;19928;-80
2023/08/05 01:16:53;;;;;;;;;;;18.60;88.20;;;;;;5041772;28;19928;-77
2023/08/05 01:19:21;;;;;;;;;;;18.60;88.30;;;;;;5044582;28;19940;-83
2023/08/05 01:21:55;;;;;;;;;;;18.60;88.40;;;;;;5041849;28;19982;-76
2023/08/05 01:24:33;;;;;;;;;;;18.60;88.50;;;;;;5041468;28;19933;-78
2023/08/05 01:27:02;;;;;;;;;;;18.60;88.50;;;;;;5039392;28;19928;-76
2023/08/05 01:29:28;;;;;;;;;;;18.60;88.60;;;;;;5039389;28;19933;-78
2023/08/05 01:31:55;;;;;;;;;;;18.50;88.70;;;;;;5043856;28;19928;-77
2023/08/05 01:34:22;;;;;;;;;;;18.50;88.70;;;;;;5042491;28;19935;-78
2023/08/05 01:36:48;;;;;;;;;;;18.50;88.70;;;;;;5042943;28;19929;-78
2023/08/05 01:39:15;;;;;;;;;;;18.50;88.80;;;;;;5045902;28;19929;-77
2023/08/05 01:41:41;;;;;;;;;;;18.50;88.80;;;;;;5043621;28;19933;-78
2023/08/05 01:44:09;;;;;;;;;;;18.50;88.90;;;;;;5041444;28;19925;-76
2023/08/05 01:46:36;;;;;;;;;;;18.50;89.00;;;;;;5038033;28;19935;-76
2023/08/05 01:49:02;;;;;;;;;;;18.40;89.00;;;;;;5035646;28;19929;-82
2023/08/05 01:51:29;;;;;;;;;;;18.50;89.10;;;;;;5040152;28;19939;-82
2023/08/05 01:53:55;;;;;;;;;;;18.50;89.20;;;;;;5037946;28;19929;-79
2023/08/05 01:56:22;;;;;;;;;;;18.40;89.10;;;;;;5036875;28;19933;-82
2023/08/05 01:58:49;;;;;;;;;;;18.40;89.20;;;;;;5042731;28;19929;-76
2023/08/05 02:01:16;;;;;;;;;;;18.40;89.30;;;;;;5039578;28;19939;-79
2023/08/05 02:03:43;;;;;;;;;;;18.40;89.30;;;;;;5040970;28;19932;-81
2023/08/05 02:06:10;;;;;;;;;;;18.30;89.30;;;;;;5042906;28;20016;-78
2023/08/05 02:08:36;;;;;;;;;;;18.30;89.40;;;;;;5040443;28;19951;-81
2023/08/05 02:11:03;;;;;;;;;;;18.30;89.40;;;;;;5042184;28;19928;-85
2023/08/05 02:13:30;;;;;;;;;;;18.30;89.50;;;;;;5037037;28;19956;-78
2023/08/05 02:15:56;;;;;;;;;;;18.30;89.60;;;;;;5039538;28;19929;-77
2023/08/05 02:18:24;;;;;;;;;;;18.30;89.60;;;;;;5034282;28;19929;-76
2023/08/05 02:20:51;;;;;;;;;;;18.30;89.60;;;;;;5041675;28;19928;-78
2023/08/05 02:23:17;;;;;;;;;;;18.30;89.60;;;;;;5037017;28;19929;-77
2023/08/05 02:25:44;;;;;;;;;;;18.20;89.60;;;;;;5036763;28;19929;-78
2023/08/05 02:28:10;;;;;;;;;;;18.20;89.60;;;;;;5037627;28;19936;-78
2023/08/05 02:30:37;;;;;;;;;;;18.20;89.70;;;;;;5032539;28;19929;-79
2023/08/05 02:33:04;;;;;;;;;;;18.10;89.70;;;;;;5041316;28;20051;-78
2023/08/05 02:35:31;;;;;;;;;;;18.20;89.80;;;;;;5037665;28;20379;-76
2023/08/05 02:37:58;;;;;;;;;;;18.10;89.80;;;;;;5034895;28;20338;-77
2023/08/05 02:40:25;;;;;;;;;;;18.10;89.90;;;;;;5037265;28;20433;-79
2023/08/05 02:42:51;;;;;;;;;;;18.10;89.90;;;;;;5037955;28;20312;-77
2023/08/05 02:45:18;;;;;;;;;;;18.10;90.00;;;;;;5035438;28;19979;-80
2023/08/05 02:47:44;;;;;;;;;;;18.10;90.00;;;;;;5041405;28;19928;-80
2023/08/05 02:50:11;;;;;;;;;;;18.10;90.00;;;;;;5037957;28;20359;-76
2023/08/05 02:52:39;;;;;;;;;;;18.00;90.00;;;;;;5037512;28;20692;-76
2023/08/05 02:55:06;;;;;;;;;;;18.00;90.00;;;;;;5039782;28;19929;-82
2023/08/05 02:57:32;;;;;;;;;;;18.00;90.10;;;;;;5041104;28;19972;-79
2023/08/05 02:59:59;;;;;;;;;;;18.00;90.10;;;;;;5038248;28;19929;-78
2023/08/05 03:02:25;;;;;;;;;;;18.00;90.10;;;;;;5034099;28;19935;-76
2023/08/05 03:04:52;;;;;;;;;;;18.00;90.10;;;;;;5038742;28;19933;-79
2023/08/05 03:07:18;;;;;;;;;;;17.90;90.10;;;;;;5037705;28;19936;-76
2023/08/05 03:09:46;;;;;;;;;;;17.90;90.10;;;;;;5038566;28;19932;-78
2023/08/05 03:12:13;;;;;;;;;;;17.90;90.10;;;;;;5041947;28;19939;-81
2023/08/05 03:14:39;;;;;;;;;;;17.90;90.20;;;;;;5040982;28;20362;-78
2023/08/05 03:17:06;;;;;;;;;;;17.90;90.20;;;;;;5035343;28;19936;-77
2023/08/05 03:19:33;;;;;;;;;;;17.90;90.20;;;;;;5040925;28;19936;-81
2023/08/05 03:21:59;;;;;;;;;;;17.90;90.20;;;;;;5041159;28;19933;-79
2023/08/05 03:24:26;;;;;;;;;;;17.80;90.20;;;;;;5044667;28;19932;-76
2023/08/05 03:26:54;;;;;;;;;;;17.80;90.20;;;;;;5043627;28;19928;-76
2023/08/05 03:29:20;;;;;;;;;;;17.80;90.30;;;;;;5043369;28;19932;-80
2023/08/05 03:31:47;;;;;;;;;;;17.80;90.30;;;;;;5038939;28;19932;-84
2023/08/05 03:34:13;;;;;;;;;;;17.80;90.30;;;;;;5039648;28;19935;-78
2023/08/05 03:36:40;;;;;;;;;;;17.80;90.30;;;;;;5039781;28;19932;-77
2023/08/05 03:39:06;;;;;;;;;;;17.70;90.30;;;;;;5041436;28;19939;-79
2023/08/05 03:41:33;;;;;;;;;;;17.80;90.40;;;;;;5034925;28;19925;-77
2023/08/05 03:44:01;;;;;;;;;;;17.70;90.40;;;;;;5038090;28;19940;-76
2023/08/05 03:46:28;;;;;;;;;;;17.70;90.40;;;;;;5035458;28;19951;-80
2023/08/05 03:48:54;;;;;;;;;;;17.70;90.40;;;;;;5040539;28;19955;-76
2023/08/05 03:51:21;;;;;;;;;;;17.60;90.40;;;;;;5035774;28;19932;-79
2023/08/05 03:53:47;;;;;;;;;;;17.60;90.40;;;;;;5039140;28;20107;-79
2023/08/05 03:56:18;;;;;;;;;;;17.60;90.40;;;;;;5035961;28;20314;-77
2023/08/05 03:58:46;;;;;;;;;;;17.60;90.50;;;;;;5035158;28;19928;-81
2023/08/05 04:01:17;;;;;;;;;;;17.60;90.50;;;;;;5040667;28;19929;-79
2023/08/05 04:03:44;;;;;;;;;;;17.60;90.50;;;;;;5037581;28;20002;-79
2023/08/05 04:06:11;;;;;;;;;;;17.60;90.50;;;;;;5043520;28;19928;-79
2023/08/05 04:08:38;;;;;;;;;;;17.60;90.60;;;;;;5037144;28;19933;-77
2023/08/05 04:11:06;;;;;;;;;;;17.50;90.50;;;;;;5037065;28;19968;-79
2023/08/05 04:13:33;;;;;;;;;;;17.50;90.60;;;;;;5035560;28;19960;-79
2023/08/05 04:16:03;;;;;;;;;;;17.50;90.60;;;;;;5042037;28;19929;-77
2023/08/05 04:18:31;;;;;;;;;;;17.50;90.60;;;;;;5039120;28;20441;-79
2023/08/05 04:20:58;;;;;;;;;;;17.50;90.60;;;;;;5036801;28;20122;-79
2023/08/05 04:23:25;;;;;;;;;;;17.40;90.60;;;;;;5040571;28;19936;-79
2023/08/05 04:25:51;;;;;;;;;;;17.40;90.60;;;;;;5038063;28;20394;-78
2023/08/05 04:28:18;;;;;;;;;;;17.40;90.70;;;;;;5041735;28;19929;-80
2023/08/05 04:30:44;;;;;;;;;;;17.40;90.70;;;;;;5038691;28;19933;-77
2023/08/05 04:33:11;;;;;;;;;;;17.40;90.70;;;;;;5041244;28;19936;-78
2023/08/05 04:35:39;;;;;;;;;;;17.40;90.70;;;;;;5042478;28;19958;-78
2023/08/05 04:38:06;;;;;;;;;;;17.40;90.70;;;;;;5040793;28;19933;-78
2023/08/05 04:40:32;;;;;;;;;;;17.40;90.70;;;;;;5042837;28;19935;-76
2023/08/05 04:42:59;;;;;;;;;;;17.40;90.70;;;;;;5041889;28;19928;-79
2023/08/05 04:45:25;;;;;;;;;;;17.30;90.70;;;;;;5038091;28;19959;-79
2023/08/05 04:47:52;;;;;;;;;;;17.30;90.70;;;;;;5039758;28;19928;-79
2023/08/05 04:50:19;;;;;;;;;;;17.30;90.80;;;;;;5039927;28;19929;-77
2023/08/05 04:52:47;;;;;;;;;;;17.30;90.80;;;;;;5041125;28;19944;-79
2023/08/05 04:55:15;;;;;;;;;;;17.30;90.80;;;;;;5036817;28;19996;-76
2023/08/05 04:57:41;;;;;;;;;;;17.30;90.80;;;;;;5039668;28;19929;-77
2023/08/05 05:00:09;;;;;;;;;;;17.30;90.90;;;;;;5046544;28;19936;-82
2023/08/05 05:02:35;;;;;;;;;;;17.30;90.90;;;;;;5031546;28;19984;-81
2023/08/05 05:05:02;;;;;;;;;;;17.20;90.90;;;;;;5034799;28;20557;-79
2023/08/05 05:07:28;;;;;;;;;;;17.20;90.90;;;;;;5034250;28;19933;-80
2023/08/05 05:09:56;;;;;;;;;;;17.20;90.90;;;;;;5034022;28;19928;-79
2023/08/05 05:12:23;;;;;;;;;;;17.20;90.90;;;;;;5034771;28;19940;-80
2023/08/05 05:14:49;;;;;;;;;;;17.20;91.00;;;;;;5035176;28;20544;-77
2023/08/05 05:17:16;;;;;;;;;;;17.10;90.90;;;;;;5063095;28;20317;-77
2023/08/05 05:19:43;;;;;;;;;;;17.20;91.00;;;;;;5058682;28;19939;-83
2023/08/05 05:22:10;;;;;;;;;;;17.20;91.00;;;;;;5065047;28;19936;-80
2023/08/05 05:24:36;;;;;;;;;;;17.10;91.00;;;;;;5059831;28;19928;-76
2023/08/05 05:27:05;;;;;;;;;;;17.10;91.00;;;;;;5061767;28;20342;-81
2023/08/05 05:29:31;;;;;;;;;;;17.10;91.00;;;;;;5060276;28;20326;-80
2023/08/05 05:31:58;;;;;;;;;;;17.10;91.00;;;;;;5062050;28;19950;-77
2023/08/05 05:34:24;;;;;;;;;;;17.10;91.10;;;;;;5060004;28;20313;-76
2023/08/05 05:36:51;;;;;;;;;;;17.10;91.10;;;;;;5057517;28;20389;-76
2023/08/05 05:39:17;;;;;;;;;;;17.10;91.10;;;;;;5060951;28;19935;-77
2023/08/05 05:41:44;;;;;;;;;;;17.10;91.10;;;;;;5066809;28;19932;-79
2023/08/05 05:44:12;;;;;;;;;;;17.00;91.10;;;;;;5058962;28;19932;-76
2023/08/05 05:46:38;;;;;;;;;;;17.00;91.10;;;;;;5060312;28;19928;-77
2023/08/05 05:49:05;;;;;;;;;;;17.00;91.10;;;;;;5058434;28;19929;-83
2023/08/05 05:51:31;;;;;;;;;;;17.00;91.10;;;;;;5060312;28;19929;-77
2023/08/05 05:53:58;;;;;;;;;;;17.00;91.10;;;;;;5060612;28;19928;-77
2023/08/05 05:56:25;;;;;;;;;;;17.00;91.10;;;;;;5062350;28;19940;-84
2023/08/05 05:58:52;;;;;;;;;;;17.00;91.10;;;;;;5055092;28;19939;-78
2023/08/05 06:01:20;;;;;;;;;;;17.00;91.20;;;;;;5058926;28;19935;-78
2023/08/05 06:03:47;;;;;;;;;;;17.00;91.20;;;;;;5054405;28;19928;-76
2023/08/05 06:06:13;;;;;;;;;;;17.00;91.20;;;;;;5055266;28;19933;-79
2023/08/05 06:08:40;;;;;;;;;;;17.00;91.20;;;;;;5053190;28;19929;-80
2023/08/05 06:11:07;;;;;;;;;;;17.00;91.20;;;;;;5054272;28;20586;-78
2023/08/05 06:13:33;;;;;;;;;;;17.00;91.50;;;;;;5054953;28;20467;-85
2023/08/05 06:16:00;;;;;;;;;;;17.00;91.20;;;;;;5054095;28;19936;-79
2023/08/05 06:18:28;;;;;;;;;;;17.00;91.20;;;;;;5054607;28;19936;-77
2023/08/05 06:20:54;;;;;;;;;;;17.00;91.20;;;;;;5060260;28;20389;-77
2023/08/05 06:23:21;;;;;;;;;;;17.00;91.20;;;;;;5057642;28;19928;-77
2023/08/05 06:25:48;;;;;;;;;;;17.00;91.20;;;;;;5060041;28;20370;-77
2023/08/05 06:28:14;;;;;;;;;;;17.00;91.20;;;;;;5058289;28;19929;-80
2023/08/05 06:30:42;;;;;;;;;;;17.00;91.20;;;;;;5054343;28;19939;-76
2023/08/05 06:33:09;;;;;;;;;;;17.00;91.30;;;;;;5053879;28;19932;-77
2023/08/05 06:35:37;;;;;;;;;;;17.00;91.30;;;;;;5056041;28;19932;-89
2023/08/05 06:38:03;;;;;;;;;;;17.00;91.40;;;;;;5066006;28;20657;-78
2023/08/05 06:40:30;;;;;;;;;;;17.00;91.40;;;;;;5063499;28;19960;-81
2023/08/05 06:42:57;;;;;;;;;;;17.00;91.50;;;;;;5060244;28;19932;-77
2023/08/05 06:45:23;;;;;;;;;;;17.00;91.50;;;;;;5061063;28;19928;-76
2023/08/05 06:47:50;;;;;;;;;;;17.00;91.40;;;;;;5062277;28;20057;-76
2023/08/05 06:50:17;;;;;;;;;;;17.00;91.80;;;;;;5057567;28;19936;-76
2023/08/05 06:52:44;;;;;;;;;;;17.00;91.40;;;;;;5055682;28;19940;-82
2023/08/05 06:55:12;;;;;;;;;;;17.00;91.40;;;;;;5054532;28;19940;-77
2023/08/05 06:57:38;;;;;;;;;;;17.00;91.40;;;;;;5060143;28;20018;-82
2023/08/05 07:00:05;;;;;;;;;;;17.00;91.50;;;;;;5060659;28;19976;-77
2023/08/05 07:02:32;;;;;;;;;;;17.10;91.60;;;;;;5054800;28;20318;-78
2023/08/05 07:04:59;;;;;;;;;;;17.10;91.50;;;;;;5053595;28;19939;-82
2023/08/05 07:07:25;;;;;;;;;;;17.00;91.50;;;;;;5058759;28;20398;-78
2023/08/05 07:10:00;;;;;;;;;;;17.10;91.50;;;;;;5057081;28;20398;-79
2023/08/05 07:12:27;;;;;;;;;;;17.10;91.50;;;;;;5056621;28;20357;-80
2023/08/05 07:14:53;;;;;;;;;;;17.10;91.70;;;;;;5052555;28;19935;-78
2023/08/05 07:17:20;;;;;;;;;;;17.10;91.40;;;;;;5055080;28;19951;-78
2023/08/05 07:19:47;;;;;;;;;;;17.10;91.40;;;;;;5056434;28;19934;-79
2023/08/05 07:22:13;;;;;;;;;;;17.10;91.40;;;;;;5053191;28;19978;-77
2023/08/05 07:24:40;;;;;;;;;;;17.10;91.60;;;;;;5053852;28;19954;-77
2023/08/05 07:27:08;;;;;;;;;;;17.10;91.40;;;;;;5054325;28;19935;-76
2023/08/05 07:29:34;;;;;;;;;;;17.10;91.30;;;;;;5054009;28;19947;-76
2023/08/05 07:32:02;;;;;;;;;;;17.20;91.40;;;;;;5053418;28;19928;-80
2023/08/05 07:34:32;;;;;;;;;;;17.20;91.40;;;;;;5049074;28;19936;-78
2023/08/05 07:36:59;;;;;;;;;;;17.20;91.40;;;;;;5055560;28;20074;-76
2023/08/05 07:39:30;;;;;;;;;;;17.20;91.40;;;;;;5054596;28;19932;-77
2023/08/05 07:41:56;;;;;;;;;;;17.20;91.40;;;;;;5053836;28;19994;-81
2023/08/05 07:44:24;;;;;;;;;;;17.20;91.30;;;;;;5055923;28;19935;-78
2023/08/05 07:46:52;;;;;;;;;;;17.20;91.30;;;;;;5054140;28;19935;-79
2023/08/05 07:49:19;;;;;;;;;;;17.20;91.30;;;;;;5052738;28;20015;-76
2023/08/05 07:51:48;;;;;;;;;;;17.20;91.30;;;;;;5058164;28;19940;-76
2023/08/05 07:54:15;;;;;;;;;;;17.30;91.30;;;;;;5053276;28;20524;-76
2023/08/05 07:56:42;;;;;;;;;;;17.30;91.30;;;;;;5052934;28;20010;-77
2023/08/05 07:59:08;;;;;;;;;;;17.30;91.20;;;;;;5051867;28;19928;-76
2023/08/05 08:01:38;;;;;;;;;;;17.30;91.20;;;;;;5052481;28;19986;-76
2023/08/05 08:04:07;;;;;;;;;;;17.30;91.20;;;;;;5054853;28;20413;-77
2023/08/05 08:06:33;;;;;;;;;;;17.30;91.10;;;;;;5049321;28;20519;-76
2023/08/05 08:09:00;;;;;;;;;;;17.30;91.50;;;;;;5057538;28;19929;-76
2023/08/05 08:11:26;;;;;;;;;;;17.40;91.20;;;;;;5052427;28;20027;-76
2023/08/05 08:13:53;;;;;;;;;;;17.30;91.10;;;;;;5050266;28;19951;-76
2023/08/05 08:16:20;;;;;;;;;;;17.40;91.10;;;;;;5056228;28;19952;-76
2023/08/05 08:18:48;;;;;;;;;;;17.40;91.20;;;;;;5053561;28;20715;-75
2023/08/05 08:21:14;;;;;;;;;;;17.40;91.10;;;;;;5057267;28;19932;-76
2023/08/05 08:23:41;;;;;;;;;;;17.50;91.10;;;;;;5054809;28;20110;-75
2023/08/05 08:26:07;;;;;;;;;;;17.50;91.10;;;;;;5054940;28;19935;-76
2023/08/05 08:28:34;;;;;;;;;;;17.50;91.10;;;;;;5054610;28;19935;-76
2023/08/05 08:31:01;;;;;;;;;;;17.50;91.00;;;;;;5051917;28;19954;-75
2023/08/05 08:33:27;;;;;;;;;;;17.50;90.90;;;;;;5062009;28;20036;-76
2023/08/05 08:35:55;;;;;;;;;;;17.60;91.00;;;;;;5051963;28;19932;-78
2023/08/05 08:38:23;;;;;;;;;;;17.60;91.00;;;;;;5051600;28;19932;-77
2023/08/05 08:40:50;;;;;;;;;;;17.60;91.00;;;;;;5053478;28;20018;-77
2023/08/05 08:43:18;;;;;;;;;;;17.60;91.00;;;;;;5054527;28;19932;-78
2023/08/05 08:45:45;;;;;;;;;;;17.70;90.90;;;;;;5054409;28;19985;-78
2023/08/05 08:48:12;;;;;;;;;;;17.70;90.80;;;;;;5058494;28;19932;-78
2023/08/05 08:50:39;;;;;;;;;;;17.80;90.90;;;;;;5057434;28;19939;-78
2023/08/05 08:53:07;;;;;;;;;;;17.80;90.80;;;;;;5055493;28;19928;-78
2023/08/05 08:55:34;;;;;;;;;;;17.80;90.80;;;;;;5059117;28;19928;-76
2023/08/05 08:58:01;;;;;;;;;;;17.90;90.80;;;;;;5057673;28;20378;-77
2023/08/05 09:00:28;;;;;;;;;;;17.90;90.70;;;;;;5061667;28;19932;-77
2023/08/05 09:02:55;;;;;;;;;;;17.90;90.70;;;;;;5056582;28;19929;-76
2023/08/05 09:05:21;;;;;;;;;;;17.90;90.60;;;;;;5059791;28;19935;-77
2023/08/05 09:07:49;;;;;;;;;;;18.00;90.60;;;;;;5063447;28;19935;-80
2023/08/05 09:10:17;;;;;;;;;;;18.00;90.50;;;;;;5055204;28;19928;-78
2023/08/05 09:12:43;;;;;;;;;;;18.10;90.40;;;;;;5056237;28;19932;-78
2023/08/05 09:15:14;;;;;;;;;;;18.10;90.30;;;;;;5057050;28;19928;-79
2023/08/05 09:17:41;;;;;;;;;;;18.10;90.30;;;;;;5060720;28;19929;-78
2023/08/05 09:20:15;;;;;;;;;;;18.20;90.10;;;;;;5058403;28;19943;-80
2023/08/05 09:22:52;;;;;;;;;;;18.20;90.10;;;;;;5056994;28;20019;-77
2023/08/05 09:25:20;;;;;;;;;;;18.30;90.10;;;;;;5055148;28;19940;-76
2023/08/05 09:27:47;;;;;;;;;;;18.30;90.00;;;;;;5059340;28;19933;-77
2023/08/05 09:30:15;;;;;;;;;;;18.40;89.90;;;;;;5057489;28;20689;-76
2023/08/05 09:32:43;;;;;;;;;;;18.40;90.10;;;;;;5060185;28;19975;-77
2023/08/05 09:35:10;;;;;;;;;;;18.50;89.60;;;;;;5054368;28;20436;-77
2023/08/05 09:37:37;;;;;;;;;;;18.50;89.40;;;;;;5059939;28;19928;-78
2023/08/05 09:40:05;;;;;;;;;;;18.60;89.20;;;;;;5056035;28;19951;-78
2023/08/05 09:42:33;;;;;;;;;;;18.60;89.10;;;;;;5059965;28;19998;-79
2023/08/05 09:45:02;;;;;;;;;;;18.70;88.90;;;;;;5055820;28;20792;-78
2023/08/05 09:47:30;;;;;;;;;;;18.80;88.70;;;;;;5055370;28;19936;-77
2023/08/05 09:49:58;;;;;;;;;;;18.80;88.40;;;;;;5055702;28;19935;-77
2023/08/05 09:52:26;;;;;;;;;;;18.90;88.20;;;;;;5056007;28;19951;-77
2023/08/05 09:54:55;;;;;;;;;;;18.90;88.00;;;;;;5061186;28;19932;-77
2023/08/05 09:57:21;;;;;;;;;;;19.00;87.80;;;;;;5059161;28;20313;-77
2023/08/05 09:59:51;;;;;;;;;;;19.00;87.20;;;;;;5056183;28;19935;-79
2023/08/05 10:02:23;;;;;;;;;;;19.10;87.00;;;;;;5057655;28;19936;-76
2023/08/05 10:04:53;;;;;;;;;;;19.10;86.90;;;;;;5061801;28;19936;-77
2023/08/05 10:07:20;;;;;;;;;;;19.20;86.70;;;;;;5059948;28;19990;-78
2023/08/05 10:09:47;;;;;;;;;;;19.30;86.60;;;;;;5060096;28;20247;-78
2023/08/05 10:12:14;;;;;;;;;;;19.30;86.20;;;;;;5060681;28;19924;-79
2023/08/05 10:14:41;;;;;;;;;;;19.40;85.90;;;;;;5055887;28;19932;-78
2023/08/05 10:17:10;;;;;;;;;;;19.50;85.70;;;;;;5055139;28;20394;-77
2023/08/05 10:19:36;;;;;;;;;;;19.50;85.20;;;;;;5060498;28;19929;-77
2023/08/05 10:22:10;;;;;;;;;;;19.60;85.00;;;;;;5057838;28;20585;-80
2023/08/05 10:24:52;;;;;;;;;;;19.70;84.90;;;;;;5064388;28;19932;-77
2023/08/05 10:27:32;;;;;;;;;;;19.70;84.20;;;;;;5056708;28;19951;-78
2023/08/05 10:30:04;;;;;;;;;;;19.80;84.20;;;;;;5055196;28;19929;-78
2023/08/05 10:32:33;;;;;;;;;;;19.80;84.40;;;;;;5058213;28;20321;-77
2023/08/05 10:35:18;;;;;;;;;;;19.80;84.00;;;;;;5060038;28;19929;-78
2023/08/05 10:37:48;;;;;;;;;;;19.90;84.40;;;;;;5059870;28;19928;-79
2023/08/05 10:40:35;;;;;;;;;;;19.90;83.50;;;;;;5062314;28;19929;-78
2023/08/05 10:43:02;;;;;;;;;;;20.00;83.80;;;;;;5060270;28;19924;-77
2023/08/05 10:45:28;;;;;;;;;;;20.00;83.60;;;;;;5053119;28;19933;-80
2023/08/05 10:47:56;;;;;;;;;;;20.10;83.60;;;;;;5059645;28;20348;-77
2023/08/05 10:50:23;;;;;;;;;;;20.20;83.00;;;;;;5051384;28;19939;-77
2023/08/05 10:52:50;;;;;;;;;;;20.30;82.60;;;;;;5053846;28;19936;-77
2023/08/05 10:55:24;;;;;;;;;;;20.30;82.50;;;;;;5053804;28;19929;-79
2023/08/05 10:57:54;;;;;;;;;;;20.40;82.50;;;;;;5056599;28;21944;-78
2023/08/05 11:00:22;;;;;;;;;;;20.40;82.20;;;;;;5062964;28;20425;-78
2023/08/05 11:02:49;;;;;;;;;;;20.50;81.80;;;;;;5065523;28;19928;-78
2023/08/05 11:05:17;;;;;;;;;;;20.50;81.80;;;;;;5053441;28;19936;-78
2023/08/05 11:07:44;;;;;;;;;;;20.50;81.30;;;;;;5052973;28;19935;-78
2023/08/05 11:10:11;;;;;;;;;;;20.60;81.30;;;;;;5053324;28;19929;-80
2023/08/05 11:12:38;;;;;;;;;;;20.60;81.20;;;;;;5059932;28;19935;-78
2023/08/05 11:15:05;;;;;;;;;;;20.70;80.90;;;;;;5059460;28;19933;-76
2023/08/05 11:17:32;;;;;;;;;;;20.70;80.20;;;;;;5059592;28;19928;-78
2023/08/05 11:19:59;;;;;;;;;;;20.80;79.30;;;;;;5055392;28;19944;-77
2023/08/05 11:22:28;;;;;;;;;;;20.80;79.00;;;;;;5062205;28;19983;-77
2023/08/05 11:24:55;;;;;;;;;;;20.90;78.80;;;;;;5052483;28;19935;-77
2023/08/05 11:27:29;;;;;;;;;;;21.00;79.30;;;;;;5053402;28;19957;-78
2023/08/05 11:29:55;;;;;;;;;;;21.00;79.50;;;;;;5058644;28;19954;-78
2023/08/05 11:32:22;;;;;;;;;;;21.10;79.40;;;;;;5058503;28;19959;-78
2023/08/05 11:34:50;;;;;;;;;;;21.10;79.00;;;;;;5053839;28;20415;-78
2023/08/05 11:37:17;;;;;;;;;;;21.20;79.00;;;;;;5055644;28;19935;-78
2023/08/05 11:39:45;;;;;;;;;;;21.30;78.40;;;;;;5054470;28;19932;-78
2023/08/05 11:42:12;;;;;;;;;;;21.30;78.60;;;;;;5055549;28;19939;-78
2023/08/05 11:44:38;;;;;;;;;;;21.40;78.20;;;;;;5056707;28;19940;-77
2023/08/05 11:47:05;;;;;;;;;;;21.50;78.10;;;;;;5056035;28;19932;-78
2023/08/05 11:49:32;;;;;;;;;;;21.60;77.20;;;;;;5055202;28;20019;-78
2023/08/05 11:51:58;;;;;;;;;;;21.60;77.10;;;;;;5052290;28;19932;-77
2023/08/05 11:54:26;;;;;;;;;;;21.70;76.50;;;;;;5057467;28;19929;-76
2023/08/05 11:56:54;;;;;;;;;;;21.80;76.30;;;;;;5050244;28;19935;-78
2023/08/05 11:59:35;;;;;;;;;;;21.80;75.40;;;;;;5051460;28;19929;-77
2023/08/05 12:02:02;;;;;;;;;;;21.90;76.00;;;;;;5049368;28;19929;-78
2023/08/05 12:04:28;;;;;;;;;;;21.90;75.00;;;;;;5053123;28;19928;-79
2023/08/05 12:06:55;;;;;;;;;;;22.00;75.20;;;;;;5053047;28;20701;-81
2023/08/05 12:09:22;;;;;;;;;;;22.10;73.90;;;;;;5058325;28;20212;-77
2023/08/05 12:11:48;;;;;;;;;;;22.10;73.90;;;;;;5053941;28;19936;-79
2023/08/05 12:14:16;;;;;;;;;;;22.10;73.80;;;;;;5059526;28;19935;-79
2023/08/05 12:16:43;;;;;;;;;;;22.20;74.10;;;;;;5056513;28;19944;-79
2023/08/05 12:19:10;;;;;;;;;;;22.20;74.40;;;;;;5052904;28;19928;-77
2023/08/05 12:21:37;;;;;;;;;;;22.30;74.00;;;;;;5058024;28;20412;-79
2023/08/05 12:24:03;;;;;;;;;;;22.30;73.60;;;;;;5062358;28;19931;-77
2023/08/05 12:26:30;;;;;;;;;;;22.30;73.10;;;;;;5057214;28;20399;-78
2023/08/05 12:28:57;;;;;;;;;;;22.40;73.90;;;;;;5057588;28;20520;-75
2023/08/05 12:31:24;;;;;;;;;;;22.40;72.50;;;;;;5054942;28;19932;-78
2023/08/05 12:33:51;;;;;;;;;;;22.50;72.20;;;;;;5058539;28;19935;-82
2023/08/05 12:36:18;;;;;;;;;;;22.50;71.50;;;;;;5055704;28;19939;-79
2023/08/05 12:38:48;;;;;;;;;;;22.50;71.90;;;;;;5059408;28;19928;-78
2023/08/05 12:41:14;;;;;;;;;;;22.60;72.00;;;;;;5059074;28;19940;-76
2023/08/05 12:43:41;;;;;;;;;;;22.60;71.40;;;;;;5052587;28;20024;-76
2023/08/05 12:46:08;;;;;;;;;;;22.70;70.30;;;;;;5059911;28;19979;-77
2023/08/05 12:48:35;;;;;;;;;;;22.70;70.70;;;;;;5057149;28;19932;-78
2023/08/05 12:51:02;;;;;;;;;;;22.80;69.80;;;;;;5056486;28;20539;-77
2023/08/05 12:53:29;;;;;;;;;;;22.80;70.10;;;;;;5057763;28;20060;-78
2023/08/05 12:55:55;;;;;;;;;;;22.90;70.80;;;;;;5061521;28;19939;-77
2023/08/05 12:58:22;;;;;;;;;;;23.00;70.70;;;;;;5059025;28;19932;-78
2023/08/05 13:00:48;;;;;;;;;;;23.00;70.70;;;;;;5063328;28;19935;-78
2023/08/05 13:03:15;;;;;;;;;;;23.10;70.80;;;;;;5053105;28;20141;-78
2023/08/05 13:05:43;;;;;;;;;;;23.10;70.70;;;;;;5061169;28;19928;-78
2023/08/05 13:08:11;;;;;;;;;;;23.20;70.90;;;;;;5058375;28;19928;-82
2023/08/05 13:10:39;;;;;;;;;;;23.20;69.80;;;;;;5055435;28;19932;-77
2023/08/05 13:13:06;;;;;;;;;;;23.30;69.90;;;;;;5057909;28;19962;-78
2023/08/05 13:15:32;;;;;;;;;;;23.30;68.90;;;;;;5053790;28;19935;-78
2023/08/05 13:17:59;;;;;;;;;;;23.30;69.40;;;;;;5063744;28;20410;-78
2023/08/05 13:20:26;;;;;;;;;;;23.40;69.40;;;;;;5059837;28;20418;-79
2023/08/05 13:22:53;;;;;;;;;;;23.50;68.30;;;;;;5060788;28;20619;-78
2023/08/05 13:25:20;;;;;;;;;;;23.50;68.20;;;;;;5060484;28;20266;-78
2023/08/05 13:27:48;;;;;;;;;;;23.60;66.70;;;;;;5057399;28;21062;-78
2023/08/05 13:30:14;;;;;;;;;;;23.60;67.10;;;;;;5058430;28;19935;-79
2023/08/05 13:32:41;;;;;;;;;;;23.60;66.80;;;;;;5061150;28;19928;-78
2023/08/05 13:35:08;;;;;;;;;;;23.70;66.30;;;;;;5063459;28;20393;-79
2023/08/05 13:37:34;;;;;;;;;;;23.70;66.20;;;;;;5058882;28;19932;-78
2023/08/05 13:40:03;;;;;;;;;;;23.80;66.00;;;;;;5057675;28;19936;-80
2023/08/05 13:42:30;;;;;;;;;;;23.80;66.00;;;;;;5056097;28;19928;-79
2023/08/05 13:44:56;;;;;;;;;;;23.90;66.40;;;;;;5059041;28;19928;-81
2023/08/05 13:47:23;;;;;;;;;;;24.00;65.90;;;;;;5057104;28;19932;-81
2023/08/05 13:49:50;;;;;;;;;;;24.00;66.10;;;;;;5059308;28;19928;-78
2023/08/05 13:52:17;;;;;;;;;;;24.10;66.00;;;;;;5058824;28;19940;-79
2023/08/05 13:54:43;;;;;;;;;;;24.10;66.10;;;;;;5056601;28;19932;-78
2023/08/05 13:57:11;;;;;;;;;;;24.10;65.70;;;;;;5061632;28;20325;-78
2023/08/05 13:59:38;;;;;;;;;;;24.20;64.30;;;;;;5060092;28;20306;-78
2023/08/05 14:02:05;;;;;;;;;;;24.20;65.00;;;;;;5051266;28;20317;-78
2023/08/05 14:04:31;;;;;;;;;;;24.30;64.90;;;;;;5055150;28;19936;-78
2023/08/05 14:06:58;;;;;;;;;;;24.30;64.80;;;;;;5055094;28;19928;-80
2023/08/05 14:09:24;;;;;;;;;;;24.40;65.30;;;;;;5056617;28;19940;-78
2023/08/05 14:11:51;;;;;;;;;;;24.40;64.80;;;;;;5057340;28;19933;-79
2023/08/05 14:14:19;;;;;;;;;;;24.40;64.60;;;;;;5058393;28;19940;-78
2023/08/05 14:16:45;;;;;;;;;;;24.50;64.60;;;;;;5061108;28;20062;-79